createdAt,value
2018-11-22T00:00:41.908Z,18.20
2018-11-22T00:03:11.688Z,19.90
2018-11-22T00:05:41.740Z,22.33
2018-11-22T00:08:12.200Z,21.37
2018-11-22T00:10:42.066Z,18.77
2018-11-22T00:13:11.531Z,20.37
2018-11-22T00:15:41.360Z,20.53
2018-11-22T00:18:10.816Z,19.20
2018-11-22T00:20:40.277Z,20.23
2018-11-22T00:23:10.570Z,18.40
2018-11-22T00:25:40.407Z,20.80
2018-11-22T00:28:10.490Z,19.27
2018-11-22T00:30:40.838Z,19.80
2018-11-22T00:33:10.490Z,19.33
2018-11-22T00:35:40.381Z,22.00
2018-11-22T00:38:10.145Z,20.03
2018-11-22T00:40:39.742Z,19.00
2018-11-22T00:43:09.508Z,17.67
2018-11-22T00:45:39.804Z,18.27
2018-11-22T00:48:09.466Z,19.20
2018-11-22T00:50:39.485Z,20.70
2018-11-22T00:53:09.442Z,19.37
2018-11-22T00:55:39.254Z,22.73
2018-11-22T00:58:09.394Z,22.67
2018-11-22T01:00:39.639Z,22.97
2018-11-22T01:03:09.494Z,21.13
2018-11-22T01:05:39.767Z,21.00
2018-11-22T01:08:09.222Z,19.00
2018-11-22T01:10:39.774Z,21.07
2018-11-22T01:13:09.226Z,19.90
2018-11-22T01:15:39.227Z,22.47
2018-11-22T01:18:09.954Z,20.17
2018-11-22T01:20:41.118Z,20.93
2018-11-22T01:23:11.872Z,23.40
2018-11-22T01:25:41.718Z,21.17
2018-11-22T01:28:11.799Z,21.30
2018-11-22T01:30:41.649Z,21.90
2018-11-22T01:33:11.076Z,21.73
2018-11-22T01:35:40.533Z,22.13
2018-11-22T01:38:10.994Z,23.83
2018-11-22T01:40:41.143Z,21.20
2018-11-22T01:43:11.177Z,22.60
2018-11-22T01:45:40.985Z,20.57
2018-11-22T01:48:10.883Z,19.50
2018-11-22T01:50:41.164Z,19.80
2018-11-22T01:53:11.614Z,21.27
2018-11-22T01:55:42.035Z,20.20
2018-11-22T01:58:12.876Z,22.27
2018-11-22T02:00:42.618Z,19.70
2018-11-22T02:03:12.477Z,24.77
2018-11-22T02:05:41.939Z,21.47
2018-11-22T02:08:12.205Z,21.67
2018-11-22T02:10:42.618Z,22.53
2018-11-22T02:13:13.331Z,22.50
2018-11-22T02:15:44.728Z,19.10
2018-11-22T02:18:15.754Z,19.40
2018-11-22T02:20:47.308Z,20.00
2018-11-22T02:23:18.725Z,21.70
2018-11-22T02:25:48.249Z,21.23
2018-11-22T02:28:19.646Z,18.30
2018-11-22T02:30:50.492Z,19.53
2018-11-22T02:33:21.429Z,20.03
2018-11-22T02:35:52.053Z,19.80
2018-11-22T02:38:22.228Z,18.53
2018-11-22T02:40:53.916Z,20.20
2018-11-22T02:43:24.721Z,18.97
2018-11-22T02:45:55.706Z,20.30
2018-11-22T02:48:25.468Z,19.43
2018-11-22T02:50:55.537Z,20.30
2018-11-22T02:53:25.375Z,20.60
2018-11-22T02:55:55.184Z,18.30
2018-11-22T02:58:24.943Z,18.93
2018-11-22T03:00:55.878Z,18.50
2018-11-22T03:03:26.376Z,17.87
2018-11-22T03:05:56.513Z,17.93
2018-11-22T03:08:26.928Z,19.90
2018-11-22T03:10:57.046Z,21.17
2018-11-22T03:13:28.258Z,19.63
2018-11-22T03:15:59.109Z,19.97
2018-11-22T03:18:30.088Z,20.70
2018-11-22T03:21:00.455Z,20.40
2018-11-22T03:23:31.037Z,19.40
2018-11-22T03:26:01.191Z,18.77
2018-11-22T03:28:31.228Z,19.80
2018-11-22T03:31:02.105Z,21.50
2018-11-22T03:33:32.811Z,18.30
2018-11-22T03:36:03.731Z,21.33
2018-11-22T03:38:34.474Z,20.97
2018-11-22T03:41:05.899Z,19.30
2018-11-22T03:43:36.431Z,20.87
2018-11-22T03:46:06.647Z,22.53
2018-11-22T03:48:36.781Z,22.63
2018-11-22T03:51:07.664Z,20.80
2018-11-22T03:53:37.746Z,22.77
2018-11-22T03:56:08.111Z,19.47
2018-11-22T03:58:38.237Z,17.50
2018-11-22T04:01:08.523Z,18.53
2018-11-22T04:03:38.510Z,17.80
2018-11-22T04:06:08.522Z,19.10
2018-11-22T04:08:38.591Z,18.57
2018-11-22T04:11:09.098Z,17.90
2018-11-22T04:13:39.487Z,18.03
2018-11-22T04:16:10.142Z,18.83
2018-11-22T04:18:40.129Z,19.97
2018-11-22T04:21:10.120Z,18.10
2018-11-22T04:23:40.554Z,18.87
2018-11-22T04:26:10.631Z,20.10
2018-11-22T04:28:40.617Z,21.73
2018-11-22T04:31:11.054Z,21.67
2018-11-22T04:33:41.812Z,19.13
2018-11-22T04:36:11.896Z,20.10
2018-11-22T04:38:41.896Z,21.07
2018-11-22T04:41:12.290Z,20.90
2018-11-22T04:43:43.449Z,20.60
2018-11-22T04:46:13.788Z,19.47
2018-11-22T04:48:43.776Z,19.23
2018-11-22T04:51:13.729Z,19.27
2018-11-22T04:53:43.984Z,20.20
2018-11-22T04:56:14.176Z,19.93
2018-11-22T04:58:44.565Z,19.17
2018-11-22T05:01:15.007Z,25.87
2018-11-22T05:03:45.049Z,20.00
2018-11-22T05:06:16.029Z,20.43
2018-11-22T05:08:45.959Z,21.37
2018-11-22T05:11:17.661Z,16.73
2018-11-22T05:13:48.845Z,20.90
2018-11-22T05:16:18.982Z,20.03
2018-11-22T05:18:49.246Z,22.03
2018-11-22T05:21:19.309Z,21.50
2018-11-22T05:23:49.231Z,20.70
2018-11-22T05:26:20.353Z,20.47
2018-11-22T05:28:50.375Z,21.00
2018-11-22T05:31:21.400Z,15.03
2018-11-22T05:33:51.444Z,22.07
2018-11-22T05:36:21.787Z,19.30
2018-11-22T05:38:52.848Z,20.03
2018-11-22T05:41:22.909Z,19.40
2018-11-22T05:43:52.918Z,18.37
2018-11-22T05:46:22.880Z,23.07
2018-11-22T05:48:53.684Z,19.73
2018-11-22T05:51:24.041Z,18.70
2018-11-22T05:53:54.725Z,20.87
2018-11-22T05:56:25.628Z,19.03
2018-11-22T05:58:55.642Z,23.40
2018-11-22T06:01:26.223Z,19.67
2018-11-22T06:03:56.802Z,20.27
2018-11-22T06:06:27.367Z,20.13
2018-11-22T06:08:57.353Z,19.10
2018-11-22T06:11:27.490Z,20.07
2018-11-22T06:13:57.314Z,19.03
2018-11-22T06:16:27.169Z,19.43
2018-11-22T06:18:58.440Z,21.83
2018-11-22T06:21:28.442Z,21.43
2018-11-22T06:23:58.823Z,21.57
2018-11-22T06:26:37.230Z,23.33
2018-11-22T06:29:08.043Z,17.67
2018-11-22T06:31:39.313Z,20.67
2018-11-22T06:34:09.201Z,22.50
2018-11-22T06:36:39.615Z,22.73
2018-11-22T06:39:10.921Z,20.53
2018-11-22T06:41:40.956Z,19.53
2018-11-22T06:44:12.012Z,17.33
2018-11-22T06:46:42.653Z,21.37
2018-11-22T06:49:13.031Z,20.13
2018-11-22T06:51:44.146Z,21.43
2018-11-22T06:54:14.513Z,22.03
2018-11-22T06:56:45.024Z,22.90
2018-11-22T06:59:15.975Z,23.97
2018-11-22T07:01:46.234Z,18.97
2018-11-22T07:04:16.748Z,20.57
2018-11-22T07:06:46.789Z,21.33
2018-11-22T07:09:17.395Z,22.37
2018-11-22T07:11:48.076Z,19.80
2018-11-22T07:14:18.143Z,18.13
2018-11-22T07:16:49.381Z,21.77
2018-11-22T07:19:19.722Z,22.13
2018-11-22T07:21:51.461Z,22.60
2018-11-22T07:24:21.635Z,20.80
2018-11-22T07:26:52.912Z,23.07
2018-11-22T07:29:22.885Z,22.67
2018-11-22T07:31:53.283Z,21.53
2018-11-22T07:34:24.628Z,22.57
2018-11-22T07:36:55.564Z,20.80
2018-11-22T07:39:25.753Z,22.70
2018-11-22T07:41:56.036Z,22.20
2018-11-22T07:44:26.360Z,19.77
2018-11-22T07:46:56.304Z,20.33
2018-11-22T07:49:27.478Z,20.63
2018-11-22T07:51:57.968Z,22.10
2018-11-22T07:54:28.593Z,22.87
2018-11-22T07:56:58.609Z,20.33
2018-11-22T07:59:28.614Z,21.93
2018-11-22T08:01:58.557Z,24.13
2018-11-22T08:04:29.144Z,21.13
2018-11-22T08:06:59.164Z,20.33
2018-11-22T08:09:29.118Z,22.33
2018-11-22T08:12:00.778Z,21.57
2018-11-22T08:14:31.206Z,25.30
2018-11-22T08:17:01.330Z,17.80
2018-11-22T08:19:31.343Z,21.10
2018-11-22T08:22:01.319Z,20.70
2018-11-22T08:24:31.466Z,22.53
2018-11-22T08:27:01.463Z,21.63
2018-11-22T08:29:33.236Z,23.43
2018-11-22T08:32:03.636Z,22.50
2018-11-22T08:34:34.660Z,23.03
2018-11-22T08:37:13.963Z,26.50
2018-11-22T08:39:44.015Z,22.47
2018-11-22T08:42:15.518Z,23.47
2018-11-22T08:44:46.626Z,23.53
2018-11-22T08:47:17.180Z,22.20
2018-11-22T08:49:47.716Z,22.90
2018-11-22T08:52:18.093Z,23.03
2018-11-22T08:54:49.103Z,24.20
2018-11-22T08:57:19.705Z,21.40
2018-11-22T08:59:52.251Z,32.13
2018-11-22T09:02:23.226Z,21.57
2018-11-22T09:04:53.502Z,23.23
2018-11-22T09:07:23.513Z,23.30
2018-11-22T09:09:53.079Z,22.07
2018-11-22T09:12:22.549Z,24.87
2018-11-22T09:14:51.965Z,24.60
2018-11-22T09:17:21.404Z,24.87
2018-11-22T09:19:51.538Z,25.73
2018-11-22T09:22:21.707Z,29.13
2018-11-22T09:24:51.416Z,26.07
2018-11-22T09:27:21.496Z,26.00
2018-11-22T09:29:51.475Z,26.03
2018-11-22T09:32:21.901Z,25.50
2018-11-22T09:34:51.748Z,26.53
2018-11-22T09:37:21.752Z,26.03
2018-11-22T09:39:51.463Z,25.27
2018-11-22T09:42:21.980Z,28.00
2018-11-22T09:44:51.762Z,22.83
2018-11-22T09:47:21.708Z,27.17
2018-11-22T09:49:51.523Z,26.17
2018-11-22T09:52:21.337Z,27.80
2018-11-22T09:54:50.844Z,26.23
2018-11-22T09:57:21.436Z,23.80
2018-11-22T09:59:50.962Z,24.00
2018-11-22T10:02:20.613Z,25.57
2018-11-22T10:04:50.970Z,22.57
2018-11-22T10:07:21.183Z,23.00
2018-11-22T10:09:51.288Z,24.03
2018-11-22T10:12:21.065Z,23.17
2018-11-22T10:14:50.984Z,22.37
2018-11-22T10:17:20.555Z,25.03
2018-11-22T10:19:50.185Z,22.83
2018-11-22T10:22:20.203Z,25.00
2018-11-22T10:24:49.844Z,23.23
2018-11-22T10:27:19.760Z,23.23
2018-11-22T10:29:49.734Z,24.23
2018-11-22T10:32:19.585Z,24.27
2018-11-22T10:34:49.526Z,24.23
2018-11-22T10:37:19.010Z,21.77
2018-11-22T10:39:48.599Z,21.80
2018-11-22T10:42:18.327Z,23.07
2018-11-22T10:44:48.545Z,26.13
2018-11-22T10:47:19.508Z,24.80
2018-11-22T10:49:51.411Z,21.77
2018-11-22T12:17:39.162Z,31.60
2018-11-22T12:20:09.762Z,32.70
2018-11-22T12:22:38.946Z,33.27
2018-11-22T12:25:11.214Z,35.37
2018-11-22T12:27:40.477Z,29.63
2018-11-22T12:30:13.455Z,33.57
2018-11-22T12:32:47.408Z,31.77
2018-11-22T12:35:21.456Z,37.63
2018-11-22T12:37:55.726Z,31.20
2018-11-22T12:40:23.988Z,32.10
2018-11-22T12:42:52.431Z,31.80
2018-11-22T12:45:20.700Z,34.57
2018-11-22T12:47:49.070Z,30.03
2018-11-22T12:50:17.460Z,33.23
2018-11-22T12:52:45.779Z,31.70
2018-11-22T12:55:14.070Z,30.60
2018-11-22T12:57:42.246Z,31.40
2018-11-22T13:00:13.257Z,28.90
2018-11-22T13:02:42.482Z,30.97
2018-11-22T13:05:13.390Z,30.90
2018-11-22T13:07:41.974Z,30.73
2018-11-22T13:10:12.506Z,27.83
2018-11-22T13:12:41.611Z,28.67
2018-11-22T13:15:12.130Z,31.07
2018-11-22T13:17:40.900Z,29.03
2018-11-22T13:20:12.975Z,26.97
2018-11-22T13:22:41.182Z,29.43
2018-11-22T13:25:12.465Z,26.33
2018-11-22T13:27:41.203Z,26.90
2018-11-22T13:30:14.006Z,30.10
2018-11-22T13:32:42.835Z,27.90
2018-11-22T13:35:11.991Z,28.03
2018-11-22T13:37:40.719Z,30.93
2018-11-22T13:40:10.679Z,31.07
2018-11-22T13:42:39.659Z,28.43
2018-11-22T13:45:10.959Z,29.47
2018-11-22T13:47:40.614Z,33.70
2018-11-22T13:50:13.160Z,28.83
2018-11-22T13:52:42.156Z,28.83
2018-11-22T13:55:10.464Z,27.60
2018-11-22T13:57:38.911Z,28.67
2018-11-22T14:00:16.199Z,26.93
2018-11-22T14:02:44.952Z,24.70
2018-11-22T14:05:13.718Z,30.93
2018-11-22T14:07:42.011Z,29.67
2018-11-22T14:10:12.640Z,26.50
2018-11-22T14:12:41.011Z,28.70
2018-11-22T14:15:42.006Z,27.30
2018-11-22T14:18:10.222Z,27.30
2018-11-22T14:20:38.534Z,26.70
2018-11-22T14:23:06.757Z,25.90
2018-11-22T14:25:35.222Z,27.30
2018-11-22T14:28:03.555Z,27.83
2018-11-22T14:30:33.430Z,28.23
2018-11-22T14:33:01.760Z,24.87
2018-11-22T14:35:30.211Z,25.70
2018-11-22T14:37:58.390Z,27.27
2018-11-22T14:40:29.135Z,27.40
2018-11-22T14:42:57.602Z,25.60
2018-11-22T14:45:26.580Z,22.40
2018-11-22T14:47:56.209Z,25.77
2018-11-22T14:50:34.225Z,25.13
2018-11-22T14:53:12.849Z,23.07
2018-11-22T14:55:41.339Z,24.33
2018-11-22T14:58:09.982Z,23.90
2018-11-22T15:00:38.740Z,25.67
2018-11-22T15:04:11.699Z,25.37
2018-11-22T15:06:39.791Z,23.93
2018-11-22T15:09:09.126Z,25.80
2018-11-22T15:11:38.026Z,25.37
2018-11-22T15:14:06.403Z,25.07
2018-11-22T15:16:34.679Z,26.80
2018-11-22T15:19:04.093Z,27.07
2018-11-22T15:21:32.251Z,25.33
2018-11-22T15:24:00.438Z,26.10
2018-11-22T15:26:28.642Z,29.80
2018-11-22T15:28:56.863Z,27.47
2018-11-22T15:31:25.818Z,27.67
2018-11-22T15:33:54.130Z,28.07
2018-11-22T15:36:22.383Z,25.33
2018-11-22T15:38:50.574Z,26.37
2018-11-22T15:41:19.082Z,26.07
2018-11-22T15:43:47.291Z,27.60
2018-11-22T15:46:15.591Z,29.90
2018-11-22T15:48:44.061Z,26.93
2018-11-22T15:51:12.296Z,27.10
2018-11-22T15:53:40.948Z,28.73
2018-11-22T15:56:09.388Z,27.03
2018-11-22T15:58:38.855Z,35.37
2018-11-22T16:01:07.253Z,27.73
2018-11-22T16:03:35.464Z,28.23
2018-11-22T16:06:04.174Z,28.40
2018-11-22T16:08:32.480Z,29.70
2018-11-22T16:11:00.613Z,29.90
2018-11-22T16:13:29.053Z,27.93
2018-11-22T16:15:57.205Z,30.87
2018-11-22T16:18:25.501Z,25.70
2018-11-22T16:20:54.873Z,27.53
2018-11-22T16:23:23.332Z,29.33
2018-11-22T16:25:51.577Z,27.93
2018-11-22T16:28:19.941Z,33.50
2018-11-22T16:30:48.101Z,38.10
2018-11-22T16:33:16.254Z,43.33
2018-11-22T16:35:44.437Z,42.50
2018-11-22T16:38:12.594Z,37.93
2018-11-22T16:40:40.789Z,38.60
2018-11-22T16:43:09.018Z,34.40
2018-11-22T16:45:37.982Z,38.87
2018-11-22T16:48:11.236Z,38.77
2018-11-22T16:50:40.531Z,44.90
2018-11-22T16:53:09.075Z,43.07
2018-11-22T16:55:37.391Z,40.77
2018-11-22T16:58:06.798Z,52.30
2018-11-22T17:00:36.207Z,46.80
2018-11-22T17:03:07.289Z,48.80
2018-11-22T17:05:36.191Z,45.87
2018-11-22T17:08:05.478Z,42.80
2018-11-22T17:10:33.959Z,56.87
2018-11-22T17:13:02.997Z,50.10
2018-11-22T17:15:33.489Z,44.90
2018-11-22T17:18:02.368Z,43.50
2018-11-22T17:20:31.256Z,49.67
2018-11-22T17:22:59.747Z,51.97
2018-11-22T17:25:29.455Z,50.30
2018-11-22T17:28:00.909Z,42.13
2018-11-22T17:30:37.426Z,43.60
2018-11-22T17:33:06.148Z,43.57
2018-11-22T17:35:34.661Z,40.50
2018-11-22T17:38:04.441Z,36.90
2018-11-22T17:40:34.368Z,40.70
2018-11-22T17:43:02.652Z,41.93
2018-11-22T17:45:33.159Z,37.10
2018-11-22T17:48:02.211Z,38.43
2018-11-22T17:50:34.049Z,46.97
2018-11-22T17:53:02.472Z,41.30
2018-11-22T17:55:31.374Z,40.37
2018-11-22T17:57:59.623Z,35.30
2018-11-22T18:00:29.454Z,39.30
2018-11-22T18:02:58.832Z,36.23
2018-11-22T18:05:27.575Z,39.20
2018-11-22T18:07:55.630Z,36.80
2018-11-22T18:10:25.832Z,38.10
2018-11-22T18:12:55.352Z,35.07
2018-11-22T18:15:24.251Z,37.00
2018-11-22T18:17:53.536Z,38.43
2018-11-22T18:20:23.420Z,37.77
2018-11-22T18:22:52.711Z,37.70
2018-11-22T18:25:23.694Z,38.67
2018-11-22T18:27:52.684Z,44.47
2018-11-22T18:30:26.029Z,35.93
2018-11-22T18:32:56.508Z,40.33
2018-11-22T18:35:25.114Z,40.40
2018-11-22T18:37:53.629Z,42.50
2018-11-22T18:40:23.648Z,37.00
2018-11-22T18:42:53.496Z,45.17
2018-11-22T18:45:27.844Z,40.33
2018-11-22T18:47:56.668Z,40.53
2018-11-22T18:50:26.214Z,42.10
2018-11-22T18:52:54.630Z,44.27
2018-11-22T18:55:23.471Z,40.10
2018-11-22T18:57:51.701Z,38.63
2018-11-22T19:00:31.624Z,42.43
2018-11-22T19:03:02.172Z,46.27
2018-11-22T19:05:30.566Z,43.70
2018-11-22T19:07:59.654Z,41.73
2018-11-22T19:10:29.370Z,49.33
2018-11-22T19:12:59.291Z,45.17
2018-11-22T19:15:28.987Z,50.80
2018-11-22T19:17:57.399Z,44.20
2018-11-22T19:20:28.908Z,44.67
2018-11-22T19:22:58.524Z,42.20
2018-11-22T19:25:27.051Z,43.47
2018-11-22T19:27:56.523Z,51.87
2018-11-22T19:30:27.280Z,44.37
2018-11-22T19:32:57.547Z,50.70
2018-11-22T19:35:27.668Z,43.77
2018-11-22T19:37:56.334Z,50.60
2018-11-22T19:40:28.702Z,46.67
2018-11-22T19:42:58.732Z,44.97
2018-11-22T19:45:28.765Z,46.27
2018-11-22T19:47:57.621Z,45.07
2018-11-22T19:50:27.431Z,49.33
2018-11-22T19:52:56.430Z,51.80
2018-11-22T19:55:26.323Z,45.87
2018-11-22T19:57:56.050Z,43.13
2018-11-22T20:00:25.254Z,45.47
2018-11-22T20:02:54.457Z,39.47
2018-11-22T20:05:24.102Z,42.93
2018-11-22T20:07:54.030Z,46.93
2018-11-22T20:10:24.915Z,57.03
2018-11-22T20:12:53.462Z,48.23
2018-11-22T20:15:21.958Z,49.23
2018-11-22T20:17:51.266Z,48.33
2018-11-22T20:20:20.134Z,49.03
2018-11-22T20:22:48.621Z,46.77
2018-11-22T20:25:16.926Z,50.40
2018-11-22T20:27:45.164Z,46.33
2018-11-22T20:30:19.320Z,50.33
2018-11-22T20:32:47.663Z,44.67
2018-11-22T20:35:17.634Z,55.47
2018-11-22T20:37:46.885Z,54.27
2018-11-22T20:40:16.578Z,54.70
2018-11-22T20:42:45.710Z,59.03
2018-11-22T20:45:16.088Z,55.60
2018-11-22T20:47:45.753Z,57.03
2018-11-22T20:50:16.428Z,48.83
2018-11-22T20:52:44.844Z,50.07
2018-11-22T20:55:19.497Z,49.57
2018-11-22T20:57:49.165Z,52.73
2018-11-22T21:00:18.742Z,55.80
2018-11-22T21:02:47.358Z,46.40
2018-11-22T21:05:16.430Z,45.67
2018-11-22T21:07:45.985Z,44.43
2018-11-22T21:10:16.787Z,50.70
2018-11-22T21:12:45.509Z,56.57
2018-11-22T21:15:18.737Z,46.53
2018-11-22T21:17:47.555Z,47.50
2018-11-22T21:20:16.609Z,51.13
2018-11-22T21:22:44.610Z,50.83
2018-11-22T21:25:14.676Z,52.00
2018-11-22T21:27:42.657Z,54.27
2018-11-22T21:30:21.597Z,60.87
2018-11-22T21:32:50.202Z,65.37
2018-11-22T21:35:18.432Z,57.90
2018-11-22T21:37:47.008Z,59.20
2018-11-22T21:40:15.598Z,50.60
2018-11-22T21:42:43.404Z,49.20
2018-11-22T21:45:14.026Z,54.70
2018-11-22T21:47:42.373Z,56.47
2018-11-22T21:50:11.858Z,47.70
2018-11-22T21:52:40.571Z,42.70
2018-11-22T21:55:11.831Z,44.07
2018-11-22T21:57:40.478Z,47.67
2018-11-22T22:00:20.437Z,47.13
2018-11-22T22:02:52.787Z,42.20
2018-11-22T22:05:18.285Z,45.03
2018-11-22T22:07:46.258Z,42.80
2018-11-22T22:10:14.065Z,43.37
2018-11-22T22:12:42.111Z,51.73
2018-11-22T22:15:16.460Z,46.03
2018-11-22T22:17:44.917Z,51.67
2018-11-22T22:20:16.257Z,60.97
2018-11-22T22:22:44.454Z,69.90
2018-11-22T22:25:14.222Z,61.20
2018-11-22T22:27:42.529Z,60.43
2018-11-22T22:30:13.596Z,66.63
2018-11-22T22:32:42.137Z,63.57
2018-11-22T22:35:10.140Z,64.10
2018-11-22T22:37:38.498Z,60.57
2018-11-22T22:41:31.202Z,58.60
2018-11-22T22:43:59.222Z,51.37
2018-11-22T22:46:27.080Z,52.40
2018-11-22T22:48:54.914Z,57.13
2018-11-22T22:51:22.750Z,56.67
2018-11-22T22:53:50.509Z,58.17
2018-11-22T22:56:18.350Z,57.17
2018-11-22T22:58:46.233Z,58.00
2018-11-22T23:01:13.990Z,70.50
2018-11-22T23:03:41.828Z,69.27
2018-11-22T23:06:09.625Z,72.50
2018-11-22T23:08:37.656Z,76.00
2018-11-22T23:11:05.417Z,68.57
2018-11-22T23:13:33.225Z,71.93
2018-11-22T23:16:01.078Z,69.37
2018-11-22T23:18:28.902Z,72.73
2018-11-22T23:20:56.735Z,69.40
2018-11-22T23:23:24.690Z,78.27
2018-11-22T23:25:52.467Z,75.90
2018-11-22T23:28:20.465Z,63.80
2018-11-22T23:30:48.237Z,65.27
2018-11-22T23:33:16.162Z,67.40
2018-11-22T23:35:44.043Z,68.47
2018-11-22T23:38:12.636Z,72.97
2018-11-22T23:40:40.571Z,68.97
2018-11-22T23:43:08.414Z,82.10
2018-11-22T23:45:36.196Z,63.97
2018-11-22T23:48:04.148Z,74.10
2018-11-22T23:50:32.634Z,66.50
2018-11-22T23:53:01.707Z,56.10
2018-11-22T23:55:29.506Z,69.33
2018-11-22T23:57:57.447Z,82.47
